createdAt,value
2017-11-13T00:02:15.046Z,4.50
2017-11-13T00:04:43.400Z,4.50
2017-11-13T00:07:11.692Z,4.50
2017-11-13T00:09:39.985Z,4.40
2017-11-13T00:12:08.303Z,4.40
2017-11-13T00:14:36.621Z,4.50
2017-11-13T00:17:05.665Z,4.70
2017-11-13T00:19:33.985Z,4.70
2017-11-13T00:22:02.273Z,4.70
2017-11-13T00:24:30.577Z,4.70
2017-11-13T00:26:58.896Z,4.80
2017-11-13T00:29:27.952Z,4.90
2017-11-13T00:31:56.296Z,4.90
2017-11-13T00:34:25.352Z,4.90
2017-11-13T00:36:53.630Z,4.90
2017-11-13T00:39:21.953Z,4.90
2017-11-13T00:41:50.282Z,5.00
2017-11-13T00:44:18.562Z,5.00
2017-11-13T00:46:46.885Z,5.00
2017-11-13T00:49:15.205Z,5.10
2017-11-13T00:51:43.493Z,5.00
2017-11-13T00:54:11.824Z,4.90
2017-11-13T00:56:40.108Z,4.90
2017-11-13T00:59:08.458Z,4.80
2017-11-13T01:01:36.741Z,4.80
2017-11-13T01:04:05.056Z,4.80
2017-11-13T01:06:33.383Z,4.80
2017-11-13T01:09:01.673Z,4.80
2017-11-13T01:11:29.984Z,4.80
2017-11-13T01:13:58.278Z,4.80
2017-11-13T01:16:26.580Z,4.80
2017-11-13T01:18:54.861Z,4.80
2017-11-13T01:21:23.180Z,4.80
2017-11-13T01:23:51.568Z,4.80
2017-11-13T01:26:19.860Z,4.80
2017-11-13T01:28:49.477Z,4.80
2017-11-13T01:31:17.760Z,4.70
2017-11-13T01:33:46.045Z,4.70
2017-11-13T01:36:14.435Z,4.80
2017-11-13T01:38:42.714Z,4.70
2017-11-13T01:41:11.018Z,4.70
2017-11-13T01:43:39.336Z,4.70
2017-11-13T01:46:07.664Z,4.80
2017-11-13T01:48:36.017Z,4.80
2017-11-13T01:51:04.309Z,4.80
2017-11-13T01:53:32.614Z,4.80
2017-11-13T01:56:00.921Z,4.70
2017-11-13T01:58:29.244Z,4.80
2017-11-13T02:00:57.641Z,4.80
2017-11-13T02:03:25.993Z,4.70
2017-11-13T02:05:54.288Z,4.70
2017-11-13T02:08:22.585Z,4.70
2017-11-13T02:10:50.950Z,4.80
2017-11-13T02:13:19.273Z,4.80
2017-11-13T02:15:47.580Z,4.90
2017-11-13T02:18:15.913Z,4.90
2017-11-13T02:20:44.221Z,4.80
2017-11-13T02:23:12.553Z,4.80
2017-11-13T02:25:41.617Z,4.80
2017-11-13T02:28:09.944Z,4.80
2017-11-13T02:30:38.231Z,4.90
2017-11-13T02:33:06.542Z,4.90
2017-11-13T02:35:35.599Z,4.80
2017-11-13T02:38:03.916Z,4.80
2017-11-13T02:40:32.215Z,4.80
2017-11-13T02:43:01.413Z,4.80
2017-11-13T02:45:29.737Z,4.80
2017-11-13T02:47:58.041Z,4.70
2017-11-13T02:50:26.337Z,4.70
2017-11-13T02:52:54.692Z,4.70
2017-11-13T02:55:22.987Z,4.80
2017-11-13T02:57:52.057Z,4.80
2017-11-13T03:00:20.393Z,4.80
2017-11-13T03:02:48.701Z,4.80
2017-11-13T03:05:16.993Z,4.80
2017-11-13T03:07:45.316Z,4.80
2017-11-13T03:10:14.393Z,4.70
2017-11-13T03:12:42.681Z,4.60
2017-11-13T03:15:11.013Z,4.60
2017-11-13T03:17:39.337Z,4.70
2017-11-13T03:20:07.633Z,4.70
2017-11-13T03:22:35.980Z,4.60
2017-11-13T03:25:04.300Z,4.60
2017-11-13T03:27:32.632Z,4.70
2017-11-13T03:30:00.926Z,4.70
2017-11-13T03:32:29.247Z,4.80
2017-11-13T03:34:57.564Z,4.80
2017-11-13T03:37:25.897Z,4.80
2017-11-13T03:39:54.705Z,4.80
2017-11-13T03:42:23.028Z,4.80
2017-11-13T03:44:52.314Z,4.70
2017-11-13T03:47:20.711Z,4.70
2017-11-13T03:49:49.008Z,4.60
2017-11-13T03:52:17.320Z,4.60
2017-11-13T03:54:46.425Z,4.70
2017-11-13T03:57:15.494Z,4.70
2017-11-13T03:59:43.790Z,4.60
2017-11-13T04:02:12.189Z,4.60
2017-11-13T04:04:41.306Z,4.60
2017-11-13T04:07:09.621Z,4.60
2017-11-13T04:09:37.939Z,4.50
2017-11-13T04:12:06.272Z,4.50
2017-11-13T04:14:34.568Z,4.50
2017-11-13T04:17:04.057Z,4.50
2017-11-13T04:19:33.136Z,4.50
2017-11-13T04:22:01.494Z,4.50
2017-11-13T04:24:30.554Z,4.50
2017-11-13T04:26:58.849Z,4.50
2017-11-13T04:29:27.177Z,4.50
2017-11-13T04:31:56.272Z,4.50
2017-11-13T04:34:25.334Z,4.50
2017-11-13T04:36:53.673Z,4.50
2017-11-13T04:39:21.961Z,4.60
2017-11-13T04:41:50.293Z,4.60
2017-11-13T04:44:18.584Z,4.60
2017-11-13T04:46:46.921Z,4.60
2017-11-13T04:49:15.221Z,4.70
2017-11-13T04:51:44.310Z,4.70
2017-11-13T04:54:12.606Z,4.70
2017-11-13T04:56:40.943Z,4.60
2017-11-13T04:59:09.237Z,4.60
2017-11-13T05:01:37.529Z,4.50
2017-11-13T05:04:05.869Z,4.50
2017-11-13T05:06:34.199Z,4.60
2017-11-13T05:09:03.057Z,4.50
2017-11-13T05:11:31.344Z,4.50
2017-11-13T05:13:59.633Z,4.50
2017-11-13T05:16:27.946Z,4.40
2017-11-13T05:18:57.030Z,4.40
2017-11-13T05:21:25.316Z,4.40
2017-11-13T05:23:53.748Z,4.50
2017-11-13T05:26:22.034Z,4.50
2017-11-13T05:28:50.320Z,4.50
2017-11-13T05:31:19.409Z,4.50
2017-11-13T05:33:47.740Z,4.50
2017-11-13T05:36:16.027Z,4.50
2017-11-13T05:38:44.352Z,4.40
2017-11-13T05:41:12.673Z,4.50
2017-11-13T05:43:41.732Z,4.50
2017-11-13T05:46:10.151Z,4.50
2017-11-13T05:48:38.453Z,4.50
2017-11-13T05:51:06.741Z,4.50
2017-11-13T05:53:35.089Z,4.50
2017-11-13T05:56:03.380Z,4.50
2017-11-13T05:58:31.672Z,4.50
2017-11-13T06:01:00.096Z,4.50
2017-11-13T06:03:28.382Z,4.50
2017-11-13T06:05:56.695Z,4.60
2017-11-13T06:08:25.789Z,4.50
2017-11-13T06:10:54.080Z,4.60
2017-11-13T06:13:22.383Z,4.60
2017-11-13T06:15:51.468Z,4.70
2017-11-13T06:18:19.765Z,4.70
2017-11-13T06:20:48.085Z,4.70
2017-11-13T06:23:16.381Z,4.70
2017-11-13T06:25:44.678Z,4.80
2017-11-13T06:28:12.979Z,4.70
2017-11-13T06:30:41.677Z,4.80
2017-11-13T06:33:09.966Z,4.90
2017-11-13T06:35:38.277Z,4.90
2017-11-13T06:38:06.601Z,4.80
2017-11-13T06:40:35.661Z,4.80
2017-11-13T06:43:03.945Z,4.80
2017-11-13T06:45:32.248Z,4.80
2017-11-13T06:48:00.756Z,4.80
2017-11-13T06:50:29.037Z,4.80
2017-11-13T06:52:57.321Z,4.80
2017-11-13T06:55:25.625Z,4.80
2017-11-13T06:57:53.952Z,4.80
2017-11-13T07:00:22.274Z,4.80
2017-11-13T07:02:50.556Z,4.80
2017-11-13T07:05:18.842Z,4.80
2017-11-13T07:07:47.192Z,4.80
2017-11-13T07:10:16.160Z,4.90
2017-11-13T07:12:44.436Z,4.90
2017-11-13T07:15:12.774Z,4.90
2017-11-13T07:17:41.849Z,4.90
2017-11-13T07:20:10.140Z,4.90
2017-11-13T07:22:38.484Z,4.90
2017-11-13T07:25:06.774Z,4.90
2017-11-13T07:27:35.073Z,4.90
2017-11-13T07:30:03.388Z,4.90
2017-11-13T07:32:31.705Z,4.80
2017-11-13T07:34:59.988Z,4.80
2017-11-13T07:37:28.302Z,4.90
2017-11-13T07:39:57.355Z,4.80
2017-11-13T07:42:25.674Z,4.80
2017-11-13T07:44:53.982Z,4.90
2017-11-13T07:47:23.056Z,5.00
2017-11-13T07:49:51.340Z,5.00
2017-11-13T07:52:19.670Z,5.00
2017-11-13T07:54:48.724Z,5.10
2017-11-13T07:57:17.025Z,5.10
2017-11-13T07:59:45.341Z,5.10
2017-11-13T08:02:13.637Z,5.10
2017-11-13T08:04:41.953Z,5.10
2017-11-13T08:07:10.261Z,5.10
2017-11-13T08:09:38.592Z,5.00
2017-11-13T08:12:08.210Z,5.20
2017-11-13T08:14:36.545Z,5.30
2017-11-13T08:17:04.833Z,5.40
2017-11-13T08:19:33.176Z,5.40
2017-11-13T08:22:01.609Z,5.50
2017-11-13T08:24:29.892Z,5.40
2017-11-13T08:26:58.953Z,5.50
2017-11-13T08:29:27.269Z,5.50
2017-11-13T08:31:55.560Z,5.60
2017-11-13T08:34:23.877Z,5.60
2017-11-13T08:36:52.337Z,5.70
2017-11-13T08:39:20.629Z,5.50
2017-11-13T08:41:48.928Z,5.40
2017-11-13T08:44:18.019Z,5.40
2017-11-13T08:46:46.323Z,5.40
2017-11-13T08:49:15.373Z,5.50
2017-11-13T08:51:43.697Z,5.50
2017-11-13T08:54:11.990Z,5.50
2017-11-13T08:56:40.309Z,5.50
2017-11-13T08:59:09.364Z,5.60
2017-11-13T09:01:37.886Z,5.60
2017-11-13T09:04:06.288Z,5.60
2017-11-13T09:06:34.670Z,5.60
2017-11-13T09:09:03.012Z,5.70
2017-11-13T09:11:31.340Z,5.90
2017-11-13T09:13:59.646Z,5.90
2017-11-13T09:16:28.784Z,6.10
2017-11-13T09:18:57.117Z,6.10
2017-11-13T09:21:25.405Z,6.10
2017-11-13T09:23:53.688Z,5.90
2017-11-13T09:26:22.013Z,5.80
2017-11-13T09:28:50.333Z,5.90
2017-11-13T09:31:18.624Z,5.90
2017-11-13T09:33:47.954Z,5.90
2017-11-13T09:36:16.280Z,5.90
2017-11-13T09:38:44.573Z,5.90
2017-11-13T09:41:12.901Z,5.70
2017-11-13T09:43:41.189Z,5.60
2017-11-13T09:46:09.509Z,5.70
2017-11-13T09:48:37.803Z,5.70
2017-11-13T09:51:06.092Z,5.80
2017-11-13T09:53:34.413Z,5.90
2017-11-13T09:56:02.713Z,5.90
2017-11-13T09:58:31.773Z,6.10
2017-11-13T10:01:00.088Z,6.10
2017-11-13T10:03:28.385Z,6.10
2017-11-13T10:05:56.813Z,6.20
2017-11-13T10:08:25.105Z,6.30
2017-11-13T10:10:53.396Z,6.50
2017-11-13T10:13:21.717Z,6.60
2017-11-13T10:15:50.045Z,6.50
2017-11-13T10:18:18.333Z,6.60
2017-11-13T10:20:48.149Z,6.40
2017-11-13T10:23:16.536Z,6.40
2017-11-13T10:25:44.853Z,6.50
2017-11-13T10:28:13.902Z,6.40
2017-11-13T10:30:42.277Z,6.40
2017-11-13T10:33:10.557Z,6.30
2017-11-13T10:35:38.842Z,6.30
2017-11-13T10:38:07.197Z,6.30
2017-11-13T10:40:35.500Z,6.30
2017-11-13T10:43:03.789Z,6.40
2017-11-13T10:45:32.874Z,6.70
2017-11-13T10:48:01.192Z,6.70
2017-11-13T10:50:30.251Z,6.80
2017-11-13T10:52:58.529Z,6.80
2017-11-13T10:55:26.842Z,7.00
2017-11-13T10:57:55.153Z,7.10
2017-11-13T11:00:23.432Z,7.00
2017-11-13T11:02:51.752Z,7.00
2017-11-13T11:05:20.946Z,7.20
2017-11-13T11:07:49.229Z,7.30
2017-11-13T11:10:17.512Z,7.40
2017-11-13T11:12:45.833Z,7.50
2017-11-13T11:18:35.408Z,7.40
2017-11-13T11:21:03.729Z,7.30
2017-11-13T11:23:33.968Z,7.30
2017-11-13T11:26:18.069Z,7.40
2017-11-13T11:31:59.887Z,7.60
2017-11-13T11:37:34.117Z,7.70
2017-11-13T11:40:02.405Z,7.70
2017-11-13T11:42:30.723Z,7.90
2017-11-13T11:45:19.555Z,7.70
2017-11-13T11:47:53.717Z,7.70
2017-11-13T11:50:22.787Z,7.80
2017-11-13T11:52:51.097Z,7.80
2017-11-13T11:58:17.885Z,7.80
2017-11-13T12:00:46.164Z,7.80
2017-11-13T12:03:14.480Z,7.80
2017-11-13T12:05:43.565Z,7.90
2017-11-13T12:08:11.850Z,7.90
2017-11-13T12:10:40.132Z,8.00
2017-11-13T12:13:09.949Z,8.00
2017-11-13T12:15:38.237Z,8.00
2017-11-13T12:18:06.593Z,8.10
2017-11-13T12:20:34.904Z,8.00
2017-11-13T12:23:03.224Z,8.00
2017-11-13T12:25:31.508Z,8.10
2017-11-13T12:27:59.824Z,8.20
2017-11-13T12:30:28.124Z,8.20
2017-11-13T12:32:57.204Z,8.10
2017-11-13T12:35:25.569Z,8.10
2017-11-13T12:37:53.882Z,8.10
2017-11-13T12:40:22.173Z,8.00
2017-11-13T12:42:50.492Z,8.10
2017-11-13T12:45:19.573Z,8.10
2017-11-13T12:47:47.885Z,8.10
2017-11-13T12:50:17.124Z,8.20
2017-11-13T12:52:45.779Z,8.20
2017-11-13T12:55:14.884Z,8.30
2017-11-13T12:57:43.174Z,8.20
2017-11-13T13:00:11.460Z,8.20
2017-11-13T13:02:40.045Z,8.30
2017-11-13T13:05:08.333Z,8.30
2017-11-13T13:07:36.618Z,8.30
2017-11-13T13:10:05.014Z,8.20
2017-11-13T13:12:33.329Z,8.20
2017-11-13T13:15:02.401Z,8.20
2017-11-13T13:17:30.700Z,8.20
2017-11-13T13:19:59.012Z,8.20
2017-11-13T13:22:28.076Z,8.20
2017-11-13T13:24:56.411Z,8.20
2017-11-13T13:27:25.506Z,8.20
2017-11-13T13:29:53.790Z,8.20
2017-11-13T13:32:22.108Z,8.10
2017-11-13T13:34:51.156Z,8.00
2017-11-13T13:37:19.480Z,8.00
2017-11-13T13:39:47.797Z,8.00
2017-11-13T13:42:18.446Z,7.90
2017-11-13T13:44:47.493Z,7.90
2017-11-13T13:47:15.780Z,7.90
2017-11-13T13:49:44.081Z,7.90
2017-11-13T13:52:12.388Z,7.90
2017-11-13T13:54:40.680Z,7.90
2017-11-13T13:57:09.058Z,8.00
2017-11-13T13:59:37.337Z,7.90
2017-11-13T14:02:05.637Z,7.90
2017-11-13T14:04:33.953Z,7.80
2017-11-13T14:07:02.996Z,7.80
2017-11-13T14:09:31.321Z,7.70
2017-11-13T14:11:59.641Z,7.80
2017-11-13T14:14:28.709Z,7.70
2017-11-13T14:16:57.024Z,7.70
2017-11-13T14:19:25.337Z,7.80
2017-11-13T14:21:54.433Z,7.90
2017-11-13T14:24:23.492Z,7.90
2017-11-13T14:26:51.781Z,7.80
2017-11-13T14:29:20.097Z,7.70
2017-11-13T14:31:48.416Z,7.80
2017-11-13T14:34:17.494Z,7.70
2017-11-13T14:36:45.793Z,7.70
2017-11-13T14:39:14.072Z,7.70
2017-11-13T14:41:43.998Z,7.70
2017-11-13T14:44:12.312Z,7.70
2017-11-13T14:46:41.368Z,7.50
2017-11-13T14:49:09.657Z,7.40
2017-11-13T14:51:37.958Z,7.40
2017-11-13T14:54:06.347Z,7.30
2017-11-13T14:56:34.661Z,7.10
2017-11-13T14:59:02.938Z,6.80
2017-11-13T15:01:31.222Z,6.70
2017-11-13T15:03:59.616Z,6.40
2017-11-13T15:06:28.009Z,6.30
2017-11-13T15:08:56.323Z,6.00
2017-11-13T15:11:25.428Z,5.70
2017-11-13T15:13:53.760Z,5.70
2017-11-13T15:16:22.082Z,5.60
2017-11-13T15:18:50.369Z,5.50
2017-11-13T15:21:18.684Z,5.40
2017-11-13T15:23:47.002Z,5.20
2017-11-13T15:26:15.302Z,5.10
2017-11-13T15:28:43.625Z,5.00
2017-11-13T15:31:12.127Z,5.00
2017-11-13T15:33:40.402Z,5.00
2017-11-13T15:36:08.683Z,4.90
2017-11-13T15:38:37.000Z,4.90
2017-11-13T15:41:05.286Z,4.90
2017-11-13T15:43:33.627Z,4.90
2017-11-13T15:46:01.916Z,5.00
2017-11-13T15:48:30.198Z,5.00
2017-11-13T15:50:58.516Z,5.00
2017-11-13T15:53:26.841Z,5.00
2017-11-13T15:55:55.161Z,5.00
2017-11-13T15:58:24.209Z,5.00
2017-11-13T16:00:52.641Z,5.00
2017-11-13T16:03:21.717Z,5.10
2017-11-13T16:05:50.013Z,5.10
2017-11-13T16:08:18.332Z,5.00
2017-11-13T16:10:47.372Z,5.10
2017-11-13T16:13:16.685Z,5.10
2017-11-13T16:15:44.984Z,5.10
2017-11-13T16:18:13.301Z,5.20
2017-11-13T16:20:41.581Z,5.20
2017-11-13T16:23:10.870Z,5.20
2017-11-13T16:25:39.161Z,5.20
2017-11-13T16:28:08.610Z,5.10
2017-11-13T16:30:36.899Z,5.10
2017-11-13T16:33:05.185Z,5.20
2017-11-13T16:35:33.989Z,5.20
2017-11-13T16:38:02.304Z,5.20
2017-11-13T16:40:31.358Z,5.20
2017-11-13T16:42:59.672Z,5.20
2017-11-13T16:45:27.962Z,5.20
2017-11-13T16:47:56.294Z,5.20
2017-11-13T16:50:25.348Z,5.20
2017-11-13T16:52:53.878Z,5.20
2017-11-13T16:55:22.925Z,5.30
2017-11-13T16:57:51.269Z,5.20
2017-11-13T17:00:19.663Z,5.30
2017-11-13T17:02:47.944Z,5.40
2017-11-13T17:05:16.328Z,5.40
2017-11-13T17:07:44.633Z,5.40
2017-11-13T17:10:13.688Z,5.40
2017-11-13T17:12:42.001Z,5.30
2017-11-13T17:15:10.281Z,5.40
2017-11-13T17:17:38.594Z,5.40
2017-11-13T17:20:06.880Z,5.40
2017-11-13T17:22:35.198Z,5.40
2017-11-13T17:25:04.249Z,5.30
2017-11-13T17:27:32.549Z,5.30
2017-11-13T17:30:00.866Z,5.30
2017-11-13T17:32:29.180Z,5.30
2017-11-13T17:34:57.476Z,5.30
2017-11-13T17:37:25.760Z,5.30
2017-11-13T17:39:54.085Z,5.20
2017-11-13T17:42:22.450Z,5.20
2017-11-13T17:44:50.793Z,5.20
2017-11-13T17:47:19.088Z,5.20
2017-11-13T17:49:47.616Z,5.10
2017-11-13T17:52:15.908Z,5.00
2017-11-13T17:54:44.205Z,5.00
2017-11-13T17:57:12.521Z,4.90
2017-11-13T17:59:40.808Z,4.90
2017-11-13T18:02:09.117Z,4.90
2017-11-13T18:04:37.409Z,4.80
2017-11-13T18:07:06.717Z,4.70
2017-11-13T18:09:35.013Z,4.60
2017-11-13T18:12:03.316Z,4.70
2017-11-13T18:14:32.364Z,4.60
2017-11-13T18:17:00.675Z,4.60
2017-11-13T18:19:28.973Z,4.60
2017-11-13T18:21:57.288Z,4.50
2017-11-13T18:24:25.601Z,4.40
2017-11-13T18:26:54.673Z,4.40
2017-11-13T18:29:22.963Z,4.40
2017-11-13T18:31:51.272Z,4.40
2017-11-13T18:34:20.344Z,4.40
2017-11-13T18:36:48.655Z,4.40
2017-11-13T18:39:16.940Z,4.40
2017-11-13T18:41:45.269Z,4.40
2017-11-13T18:44:13.592Z,4.40
2017-11-13T18:46:41.885Z,4.40
2017-11-13T18:49:10.188Z,4.50
2017-11-13T18:51:38.518Z,4.50
2017-11-13T18:54:07.589Z,4.50
2017-11-13T18:56:36.071Z,4.50
2017-11-13T18:59:04.375Z,4.40
2017-11-13T19:01:32.769Z,4.40
2017-11-13T19:04:01.165Z,4.50
2017-11-13T19:06:29.492Z,4.50
2017-11-13T19:08:57.801Z,4.50
2017-11-13T19:11:26.087Z,4.50
2017-11-13T19:13:54.408Z,4.50
2017-11-13T19:16:22.801Z,4.40
2017-11-13T19:18:51.080Z,4.30
2017-11-13T19:21:19.409Z,4.30
2017-11-13T19:23:48.456Z,4.20
2017-11-13T19:26:16.772Z,4.20
2017-11-13T19:28:45.060Z,4.20
2017-11-13T19:31:13.372Z,4.20
2017-11-13T19:33:41.780Z,4.20
2017-11-13T19:36:10.848Z,4.10
2017-11-13T19:38:39.129Z,4.10
2017-11-13T19:41:07.839Z,4.10
2017-11-13T19:43:36.120Z,4.10
2017-11-13T19:46:04.413Z,4.00
2017-11-13T19:48:32.728Z,3.90
2017-11-13T19:51:01.008Z,3.90
2017-11-13T19:53:29.327Z,3.80
2017-11-13T19:55:58.388Z,3.70
2017-11-13T19:58:26.674Z,3.70
2017-11-13T20:00:55.076Z,3.70
2017-11-13T20:03:23.402Z,3.60
2017-11-13T20:05:52.453Z,3.40
2017-11-13T20:08:20.865Z,3.40
2017-11-13T20:10:49.971Z,3.40
2017-11-13T20:13:18.384Z,3.40
2017-11-13T20:15:46.700Z,3.40
2017-11-13T20:18:14.995Z,3.30
2017-11-13T20:20:44.322Z,3.30
2017-11-13T20:23:12.655Z,3.20
2017-11-13T20:25:40.941Z,3.10
2017-11-13T20:28:09.270Z,3.10
2017-11-13T20:30:37.555Z,3.00
2017-11-13T20:33:07.368Z,3.00
2017-11-13T20:35:36.439Z,3.00
2017-11-13T20:38:04.729Z,3.00
2017-11-13T20:40:33.045Z,2.90
2017-11-13T20:43:02.088Z,2.90
2017-11-13T20:45:30.411Z,2.80
2017-11-13T20:47:58.709Z,2.90
2017-11-13T20:50:27.065Z,2.80
2017-11-13T20:52:56.201Z,2.70
2017-11-13T20:55:24.503Z,2.70
2017-11-13T20:57:52.833Z,2.70
2017-11-13T21:00:21.125Z,2.70
2017-11-13T21:02:49.417Z,2.70
2017-11-13T21:05:18.636Z,2.70
2017-11-13T21:07:48.209Z,2.60
2017-11-13T21:10:16.530Z,2.70
2017-11-13T21:12:44.929Z,2.60
2017-11-13T21:15:14.344Z,2.60
2017-11-13T21:17:42.692Z,2.60
2017-11-13T21:20:10.979Z,2.60
2017-11-13T21:22:39.423Z,2.60
2017-11-13T21:25:08.949Z,2.60
2017-11-13T21:27:37.244Z,2.60
2017-11-13T21:30:07.309Z,2.70
2017-11-13T21:32:35.696Z,2.70
2017-11-13T21:35:05.809Z,2.70
2017-11-13T21:37:34.101Z,2.70
2017-11-13T21:40:02.437Z,2.70
2017-11-13T21:42:32.257Z,2.70
2017-11-13T21:45:01.312Z,2.70
2017-11-13T21:47:30.982Z,2.70
2017-11-13T21:49:59.273Z,2.70
2017-11-13T21:52:27.606Z,2.60
2017-11-13T21:54:55.927Z,2.60
2017-11-13T21:57:25.181Z,2.60
2017-11-13T21:59:53.478Z,2.60
2017-11-13T22:02:21.757Z,2.60
2017-11-13T22:04:50.090Z,2.60
2017-11-13T22:07:18.402Z,2.50
2017-11-13T22:09:46.784Z,2.60
2017-11-13T22:12:18.071Z,2.70
2017-11-13T22:14:46.392Z,2.70
2017-11-13T22:17:16.543Z,2.70
2017-11-13T22:19:44.860Z,2.80
2017-11-13T22:22:13.149Z,3.00
2017-11-13T22:24:44.426Z,3.10
2017-11-13T22:27:12.700Z,3.10
2017-11-13T22:29:40.986Z,3.10
2017-11-13T22:32:09.380Z,3.20
2017-11-13T22:34:37.688Z,3.20
2017-11-13T22:37:07.904Z,3.20
2017-11-13T22:39:36.214Z,3.20
2017-11-13T22:42:04.501Z,3.30
2017-11-13T22:44:33.578Z,3.40
2017-11-13T22:47:01.852Z,3.30
2017-11-13T22:49:30.245Z,3.30
2017-11-13T22:51:58.558Z,3.40
2017-11-13T22:54:26.862Z,3.30
2017-11-13T22:56:55.145Z,3.30
2017-11-13T22:59:23.456Z,3.30
2017-11-13T23:01:52.517Z,3.30
2017-11-13T23:04:20.800Z,3.30
2017-11-13T23:06:49.100Z,3.40
2017-11-13T23:09:17.421Z,3.40
2017-11-13T23:11:45.728Z,3.40
2017-11-13T23:14:14.808Z,3.40
2017-11-13T23:16:44.674Z,3.30
2017-11-13T23:19:14.763Z,3.30
2017-11-13T23:21:43.048Z,3.40
2017-11-13T23:24:12.886Z,3.30
2017-11-13T23:26:41.949Z,3.40
2017-11-13T23:29:10.276Z,3.30
2017-11-13T23:31:38.552Z,3.30
2017-11-13T23:34:06.868Z,3.30
2017-11-13T23:36:35.920Z,3.20
2017-11-13T23:39:05.284Z,3.20
2017-11-13T23:41:33.597Z,3.20
2017-11-13T23:44:01.966Z,3.20
2017-11-13T23:46:31.012Z,3.00
2017-11-13T23:48:59.341Z,3.00
2017-11-13T23:51:29.362Z,3.00
2017-11-13T23:53:57.668Z,3.00
2017-11-13T23:56:25.952Z,3.00
2017-11-13T23:58:54.272Z,2.90
